sensor_id;sensor_type;location;lat;lon;timestamp;pressure;altitude;pressure_sealevel;temperature;humidity
73633;BME280;61927;50.080;14.418;2023-05-11T00:01:53;99156.50;;;15.33;54.05
73633;BME280;61927;50.080;14.418;2023-05-11T00:04:19;99156.91;;;15.29;54.19
73633;BME280;61927;50.080;14.418;2023-05-11T00:06:44;99159.97;;;15.24;53.94
73633;BME280;61927;50.080;14.418;2023-05-11T00:09:10;99159.13;;;15.24;54.27
73633;BME280;61927;50.080;14.418;2023-05-11T00:11:36;99152.94;;;15.23;53.93
73633;BME280;61927;50.080;14.418;2023-05-11T00:14:02;99152.47;;;15.18;53.99
73633;BME280;61927;50.080;14.418;2023-05-11T00:16:27;99156.25;;;15.15;53.66
73633;BME280;61927;50.080;14.418;2023-05-11T00:18:53;99156.38;;;15.14;53.95
73633;BME280;61927;50.080;14.418;2023-05-11T00:21:19;99156.78;;;15.09;53.59
73633;BME280;61927;50.080;14.418;2023-05-11T00:23:47;99153.13;;;15.10;53.90
73633;BME280;61927;50.080;14.418;2023-05-11T00:26:13;99156.19;;;15.06;53.92
73633;BME280;61927;50.080;14.418;2023-05-11T00:28:39;99155.22;;;15.07;54.00
73633;BME280;61927;50.080;14.418;2023-05-11T00:31:05;99152.53;;;15.07;53.87
73633;BME280;61927;50.080;14.418;2023-05-11T00:33:30;99148.63;;;15.11;54.27
73633;BME280;61927;50.080;14.418;2023-05-11T00:35:56;99155.53;;;15.13;54.29
73633;BME280;61927;50.080;14.418;2023-05-11T00:38:22;99151.03;;;15.14;54.44
73633;BME280;61927;50.080;14.418;2023-05-11T00:40:48;99153.97;;;15.11;54.39
73633;BME280;61927;50.080;14.418;2023-05-11T00:43:14;99156.31;;;15.04;54.61
73633;BME280;61927;50.080;14.418;2023-05-11T00:45:39;99156.06;;;15.07;54.06
73633;BME280;61927;50.080;14.418;2023-05-11T00:48:05;99149.53;;;15.00;53.67
73633;BME280;61927;50.080;14.418;2023-05-11T00:50:31;99148.09;;;14.96;53.33
73633;BME280;61927;50.080;14.418;2023-05-11T00:52:57;99152.16;;;14.91;53.38
73633;BME280;61927;50.080;14.418;2023-05-11T00:55:23;99150.13;;;14.83;53.48
73633;BME280;61927;50.080;14.418;2023-05-11T00:57:49;99155.13;;;14.76;54.04
73633;BME280;61927;50.080;14.418;2023-05-11T01:00:15;99153.22;;;14.67;54.47
73633;BME280;61927;50.080;14.418;2023-05-11T01:02:44;99146.19;;;14.66;54.82
73633;BME280;61927;50.080;14.418;2023-05-11T01:05:09;99158.09;;;14.62;54.78
73633;BME280;61927;50.080;14.418;2023-05-11T01:07:49;99159.59;;;14.55;55.77
73633;BME280;61927;50.080;14.418;2023-05-11T01:10:41;99159.38;;;14.47;56.01
73633;BME280;61927;50.080;14.418;2023-05-11T01:13:25;99152.69;;;14.41;55.56
73633;BME280;61927;50.080;14.418;2023-05-11T01:15:54;99159.97;;;14.39;55.04
73633;BME280;61927;50.080;14.418;2023-05-11T01:18:31;99159.97;;;14.39;55.11
73633;BME280;61927;50.080;14.418;2023-05-11T01:21:00;99166.16;;;14.40;54.94
73633;BME280;61927;50.080;14.418;2023-05-11T01:23:57;99160.22;;;14.36;55.26
73633;BME280;61927;50.080;14.418;2023-05-11T01:30:00;99162.03;;;14.36;54.95
73633;BME280;61927;50.080;14.418;2023-05-11T01:32:27;99159.25;;;14.37;55.28
73633;BME280;61927;50.080;14.418;2023-05-11T01:35:05;99155.59;;;14.38;54.96
73633;BME280;61927;50.080;14.418;2023-05-11T01:37:32;99166.41;;;14.37;55.19
73633;BME280;61927;50.080;14.418;2023-05-11T01:40:04;99160.09;;;14.38;54.93
73633;BME280;61927;50.080;14.418;2023-05-11T01:42:43;99165.81;;;14.44;54.72
73633;BME280;61927;50.080;14.418;2023-05-11T01:45:11;99166.78;;;14.43;54.47
73633;BME280;61927;50.080;14.418;2023-05-11T01:47:40;99170.78;;;14.38;54.45
73633;BME280;61927;50.080;14.418;2023-05-11T01:50:07;99166.53;;;14.35;54.59
73633;BME280;61927;50.080;14.418;2023-05-11T01:52:34;99170.31;;;14.33;54.57
73633;BME280;61927;50.080;14.418;2023-05-11T01:55:03;99166.91;;;14.31;54.86
73633;BME280;61927;50.080;14.418;2023-05-11T01:57:30;99179.66;;;14.27;54.99
73633;BME280;61927;50.080;14.418;2023-05-11T01:59:57;99175.63;;;14.33;55.28
73633;BME280;61927;50.080;14.418;2023-05-11T02:02:24;99175.38;;;14.36;54.96
73633;BME280;61927;50.080;14.418;2023-05-11T02:04:51;99171.28;;;14.32;54.90
73633;BME280;61927;50.080;14.418;2023-05-11T02:07:18;99176.13;;;14.27;54.78
73633;BME280;61927;50.080;14.418;2023-05-11T02:09:47;99178.22;;;14.23;54.83
73633;BME280;61927;50.080;14.418;2023-05-11T02:12:16;99169.59;;;14.19;54.76
73633;BME280;61927;50.080;14.418;2023-05-11T02:14:43;99180.53;;;14.16;54.75
73633;BME280;61927;50.080;14.418;2023-05-11T02:17:09;99177.13;;;14.14;54.88
73633;BME280;61927;50.080;14.418;2023-05-11T02:19:37;99178.09;;;14.13;54.84
73633;BME280;61927;50.080;14.418;2023-05-11T02:22:04;99180.78;;;14.13;54.61
73633;BME280;61927;50.080;14.418;2023-05-11T02:24:32;99174.59;;;14.13;54.56
73633;BME280;61927;50.080;14.418;2023-05-11T02:26:58;99176.41;;;14.12;54.60
73633;BME280;61927;50.080;14.418;2023-05-11T02:29:24;99176.53;;;14.11;54.38
73633;BME280;61927;50.080;14.418;2023-05-11T02:31:55;99174.59;;;14.13;54.41
73633;BME280;61927;50.080;14.418;2023-05-11T02:34:27;99174.72;;;14.11;54.48
73633;BME280;61927;50.080;14.418;2023-05-11T02:36:58;99177.38;;;14.11;54.62
73633;BME280;61927;50.080;14.418;2023-05-11T02:39:31;99180.53;;;14.16;54.31
73633;BME280;61927;50.080;14.418;2023-05-11T02:41:59;99178.69;;;14.17;54.31
73633;BME280;61927;50.080;14.418;2023-05-11T02:44:31;99180.66;;;14.15;54.62
73633;BME280;61927;50.080;14.418;2023-05-11T02:47:01;99180.78;;;14.13;54.45
73633;BME280;61927;50.080;14.418;2023-05-11T02:49:29;99181.63;;;14.14;53.90
73633;BME280;61927;50.080;14.418;2023-05-11T02:51:58;99185.25;;;14.13;54.34
73633;BME280;61927;50.080;14.418;2023-05-11T02:54:24;99183.44;;;14.13;54.41
73633;BME280;61927;50.080;14.418;2023-05-11T02:56:50;99187.94;;;14.13;54.39
73633;BME280;61927;50.080;14.418;2023-05-11T02:59:17;99190.59;;;14.13;54.27
73633;BME280;61927;50.080;14.418;2023-05-11T03:01:43;99187.19;;;14.11;54.56
73633;BME280;61927;50.080;14.418;2023-05-11T03:04:09;99183.69;;;14.10;54.22
73633;BME280;61927;50.080;14.418;2023-05-11T03:06:35;99189.16;;;14.09;54.50
73633;BME280;61927;50.080;14.418;2023-05-11T03:09:01;99192.78;;;14.08;54.47
73633;BME280;61927;50.080;14.418;2023-05-11T03:11:27;99190.97;;;14.08;54.45
73633;BME280;61927;50.080;14.418;2023-05-11T03:13:53;99188.28;;;14.08;54.44
73633;BME280;61927;50.080;14.418;2023-05-11T03:16:19;99190.97;;;14.08;54.45
73633;BME280;61927;50.080;14.418;2023-05-11T03:18:46;99193.63;;;14.08;54.39
73633;BME280;61927;50.080;14.418;2023-05-11T03:21:15;99191.94;;;14.07;54.57
73633;BME280;61927;50.080;14.418;2023-05-11T03:23:44;99188.66;;;14.15;54.39
73633;BME280;61927;50.080;14.418;2023-05-11T03:26:10;99190.69;;;14.22;54.28
73633;BME280;61927;50.080;14.418;2023-05-11T03:28:37;99189.97;;;14.20;54.26
73633;BME280;61927;50.080;14.418;2023-05-11T03:31:04;99194.47;;;14.20;54.59
73633;BME280;61927;50.080;14.418;2023-05-11T03:33:31;99199.06;;;14.18;54.46
73633;BME280;61927;50.080;14.418;2023-05-11T03:35:57;99200.28;;;14.14;54.33
73633;BME280;61927;50.080;14.418;2023-05-11T03:38:26;99196.31;;;14.08;54.65
73633;BME280;61927;50.080;14.418;2023-05-11T03:40:53;99202.59;;;14.07;54.89
73633;BME280;61927;50.080;14.418;2023-05-11T03:43:21;99198.38;;;14.05;54.61
73633;BME280;61927;50.080;14.418;2023-05-11T03:45:50;99202.00;;;14.04;55.08
73633;BME280;61927;50.080;14.418;2023-05-11T03:48:18;99207.47;;;14.02;55.00
73633;BME280;61927;50.080;14.418;2023-05-11T03:50:45;99207.09;;;14.07;54.95
73633;BME280;61927;50.080;14.418;2023-05-11T03:53:11;99206.97;;;14.08;54.81
73633;BME280;61927;50.080;14.418;2023-05-11T03:55:37;99202.59;;;14.07;54.29
73633;BME280;61927;50.080;14.418;2023-05-11T03:58:09;99203.34;;;14.09;54.76
73633;BME280;61927;50.080;14.418;2023-05-11T04:00:39;99206.59;;;14.13;54.62
73633;BME280;61927;50.080;14.418;2023-05-11T04:03:07;99203.94;;;14.13;54.80
73633;BME280;61927;50.080;14.418;2023-05-11T04:05:33;99204.53;;;14.16;54.45
73633;BME280;61927;50.080;14.418;2023-05-11T04:08:00;99206.47;;;14.14;54.71
73633;BME280;61927;50.080;14.418;2023-05-11T04:10:27;99208.44;;;14.12;54.72
73633;BME280;61927;50.080;14.418;2023-05-11T04:12:52;99201.50;;;14.21;54.77
73633;BME280;61927;50.080;14.418;2023-05-11T04:15:18;99204.03;;;14.22;54.70
73633;BME280;61927;50.080;14.418;2023-05-11T04:17:44;99208.66;;;14.20;54.07
73633;BME280;61927;50.080;14.418;2023-05-11T04:20:09;99206.84;;;14.21;54.13
73633;BME280;61927;50.080;14.418;2023-05-11T04:22:35;99216.41;;;14.23;53.59
73633;BME280;61927;50.080;14.418;2023-05-11T04:25:01;99210.84;;;14.27;53.81
73633;BME280;61927;50.080;14.418;2023-05-11T04:27:27;99215.91;;;14.30;53.75
73633;BME280;61927;50.080;14.418;2023-05-11T04:29:52;99215.69;;;14.33;54.00
73633;BME280;61927;50.080;14.418;2023-05-11T04:32:18;99207.91;;;14.30;53.83
73633;BME280;61927;50.080;14.418;2023-05-11T04:34:44;99208.63;;;14.32;53.76
73633;BME280;61927;50.080;14.418;2023-05-11T04:37:10;99217.50;;;14.32;53.46
73633;BME280;61927;50.080;14.418;2023-05-11T04:39:36;99212.28;;;14.31;53.39
73633;BME280;61927;50.080;14.418;2023-05-11T04:42:01;99216.53;;;14.33;53.49
73633;BME280;61927;50.080;14.418;2023-05-11T04:44:27;99210.69;;;14.39;53.20
73633;BME280;61927;50.080;14.418;2023-05-11T04:46:53;99216.75;;;14.41;53.24
73633;BME280;61927;50.080;14.418;2023-05-11T04:49:19;99217.84;;;14.39;53.12
73633;BME280;61927;50.080;14.418;2023-05-11T04:51:45;99224.16;;;14.38;53.55
73633;BME280;61927;50.080;14.418;2023-05-11T04:54:11;99222.47;;;14.37;53.43
73633;BME280;61927;50.080;14.418;2023-05-11T04:56:36;99221.16;;;14.42;53.51
73633;BME280;61927;50.080;14.418;2023-05-11T04:59:08;99223.56;;;14.45;53.35
73633;BME280;61927;50.080;14.418;2023-05-11T05:01:34;99220.41;;;14.51;53.64
73633;BME280;61927;50.080;14.418;2023-05-11T05:04:00;99218.06;;;14.58;53.14
73633;BME280;61927;50.080;14.418;2023-05-11T05:06:26;99227.66;;;14.61;52.74
73633;BME280;61927;50.080;14.418;2023-05-11T05:08:52;99222.06;;;14.64;52.41
73633;BME280;61927;50.080;14.418;2023-05-11T05:11:17;99222.06;;;14.64;52.74
73633;BME280;61927;50.080;14.418;2023-05-11T05:13:43;99228.97;;;14.66;53.02
73633;BME280;61927;50.080;14.418;2023-05-11T05:16:08;99231.13;;;14.72;52.33
73633;BME280;61927;50.080;14.418;2023-05-11T05:18:34;99237.06;;;14.76;52.70
73633;BME280;61927;50.080;14.418;2023-05-11T05:21:01;99237.41;;;14.82;52.20
73633;BME280;61927;50.080;14.418;2023-05-11T05:23:27;99235.09;;;14.89;51.97
73633;BME280;61927;50.080;14.418;2023-05-11T05:25:53;99241.16;;;14.91;51.24
73633;BME280;61927;50.080;14.418;2023-05-11T05:28:18;99245.78;;;14.89;51.47
73633;BME280;61927;50.080;14.418;2023-05-11T05:30:44;99244.66;;;14.92;51.25
73633;BME280;61927;50.080;14.418;2023-05-11T05:33:10;99245.41;;;14.94;51.17
73633;BME280;61927;50.080;14.418;2023-05-11T05:35:35;99241.50;;;14.98;51.83
73633;BME280;61927;50.080;14.418;2023-05-11T05:38:01;99246.41;;;15.13;51.28
73633;BME280;61927;50.080;14.418;2023-05-11T05:40:26;99243.09;;;15.21;51.16
73633;BME280;61927;50.080;14.418;2023-05-11T05:42:53;99246.34;;;15.25;50.31
73633;BME280;61927;50.080;14.418;2023-05-11T05:45:22;99244.25;;;15.28;50.62
73633;BME280;61927;50.080;14.418;2023-05-11T05:47:48;99253.59;;;15.34;50.33
73633;BME280;61927;50.080;14.418;2023-05-11T05:50:13;99251.06;;;15.32;49.76
73633;BME280;61927;50.080;14.418;2023-05-11T05:52:39;99253.47;;;15.35;49.70
73633;BME280;61927;50.080;14.418;2023-05-11T05:55:05;99262.53;;;15.44;49.76
73633;BME280;61927;50.080;14.418;2023-05-11T05:57:31;99255.81;;;15.49;50.16
73633;BME280;61927;50.080;14.418;2023-05-11T05:59:56;99264.28;;;15.55;49.43
73633;BME280;61927;50.080;14.418;2023-05-11T06:02:22;99262.81;;;15.62;49.56
73633;BME280;61927;50.080;14.418;2023-05-11T06:04:47;99261.44;;;15.67;49.79
73633;BME280;61927;50.080;14.418;2023-05-11T06:07:13;99263.72;;;15.72;49.84
73633;BME280;61927;50.080;14.418;2023-05-11T06:09:39;99269.13;;;15.81;48.83
73633;BME280;61927;50.080;14.418;2023-05-11T06:12:05;99265.81;;;15.89;48.71
73633;BME280;61927;50.080;14.418;2023-05-11T06:14:30;99269.31;;;15.90;48.43
73633;BME280;61927;50.080;14.418;2023-05-11T06:16:57;99272.31;;;15.96;48.32
73633;BME280;61927;50.080;14.418;2023-05-11T06:19:22;99264.59;;;16.03;48.17
73633;BME280;61927;50.080;14.418;2023-05-11T06:21:48;99271.38;;;16.07;48.36
73633;BME280;61927;50.080;14.418;2023-05-11T06:24:13;99272.13;;;16.19;48.90
73633;BME280;61927;50.080;14.418;2023-05-11T06:26:40;99264.53;;;16.24;47.72
73633;BME280;61927;50.080;14.418;2023-05-11T06:29:06;99274.69;;;16.20;48.00
73633;BME280;61927;50.080;14.418;2023-05-11T06:31:33;99270.31;;;16.19;47.71
73633;BME280;61927;50.080;14.418;2023-05-11T06:33:59;99279.13;;;16.10;48.39
73633;BME280;61927;50.080;14.418;2023-05-11T06:36:24;99273.78;;;16.10;48.29
73633;BME280;61927;50.080;14.418;2023-05-11T06:38:50;99265.63;;;16.11;48.77
73633;BME280;61927;50.080;14.418;2023-05-11T06:41:16;99276.47;;;16.10;48.59
73633;BME280;61927;50.080;14.418;2023-05-11T06:43:41;99273.38;;;16.14;48.18
73633;BME280;61927;50.080;14.418;2023-05-11T06:46:07;99271.41;;;16.17;47.97
73633;BME280;61927;50.080;14.418;2023-05-11T06:48:34;99273.16;;;16.27;48.07
73633;BME280;61927;50.080;14.418;2023-05-11T06:50:59;99274.47;;;16.42;48.58
73633;BME280;61927;50.080;14.418;2023-05-11T06:53:25;99281.59;;;16.63;48.48
73633;BME280;61927;50.080;14.418;2023-05-11T06:55:53;99275.28;;;16.73;48.26
73633;BME280;61927;50.080;14.418;2023-05-11T06:58:19;99282.66;;;16.81;47.75
73633;BME280;61927;50.080;14.418;2023-05-11T07:00:46;99278.44;;;16.88;47.58
73633;BME280;61927;50.080;14.418;2023-05-11T07:03:11;99277.31;;;16.91;47.32
73633;BME280;61927;50.080;14.418;2023-05-11T07:05:37;99272.66;;;16.93;47.21
73633;BME280;61927;50.080;14.418;2023-05-11T07:08:04;99275.75;;;16.98;47.31
73633;BME280;61927;50.080;14.418;2023-05-11T07:10:30;99279.16;;;17.00;47.29
73633;BME280;61927;50.080;14.418;2023-05-11T07:12:56;99278.72;;;17.04;47.48
73633;BME280;61927;50.080;14.418;2023-05-11T07:15:22;99278.44;;;17.17;47.19
73633;BME280;61927;50.080;14.418;2023-05-11T07:17:47;99278.03;;;17.22;46.35
73633;BME280;61927;50.080;14.418;2023-05-11T07:20:14;99278.59;;;17.25;47.44
73633;BME280;61927;50.080;14.418;2023-05-11T07:22:40;99286.50;;;17.36;45.40
73633;BME280;61927;50.080;14.418;2023-05-11T07:25:06;99278.88;;;17.41;44.93
73633;BME280;61927;50.080;14.418;2023-05-11T07:27:33;99272.09;;;17.47;45.01
73633;BME280;61927;50.080;14.418;2023-05-11T07:30:00;99274.75;;;17.57;44.88
73633;BME280;61927;50.080;14.418;2023-05-11T07:32:25;99275.16;;;17.62;45.08
73633;BME280;61927;50.080;14.418;2023-05-11T07:34:51;99272.78;;;17.68;44.91
73633;BME280;61927;50.080;14.418;2023-05-11T07:37:16;99269.38;;;17.76;44.52
73633;BME280;61927;50.080;14.418;2023-05-11T07:39:42;99275.75;;;17.75;45.18
73633;BME280;61927;50.080;14.418;2023-05-11T07:42:08;99278.44;;;17.75;44.51
73633;BME280;61927;50.080;14.418;2023-05-11T07:44:35;99281.53;;;17.70;44.89
73633;BME280;61927;50.080;14.418;2023-05-11T07:47:01;99269.97;;;17.70;44.56
73633;BME280;61927;50.080;14.418;2023-05-11T07:49:27;99281.53;;;17.61;45.14
73633;BME280;61927;50.080;14.418;2023-05-11T07:51:53;99282.09;;;17.55;44.96
73633;BME280;61927;50.080;14.418;2023-05-11T07:54:19;99273.22;;;17.44;44.85
73633;BME280;61927;50.080;14.418;2023-05-11T07:56:44;99287.91;;;17.40;45.49
73633;BME280;61927;50.080;14.418;2023-05-11T07:59:10;99277.47;;;17.37;45.68
73633;BME280;61927;50.080;14.418;2023-05-11T08:01:36;99281.13;;;17.36;45.88
73633;BME280;61927;50.080;14.418;2023-05-11T08:04:02;99279.56;;;17.43;45.94
73633;BME280;61927;50.080;14.418;2023-05-11T08:06:28;99278.72;;;17.53;45.37
73633;BME280;61927;50.080;14.418;2023-05-11T08:08:53;99276.31;;;17.59;45.09
73633;BME280;61927;50.080;14.418;2023-05-11T08:11:19;99272.63;;;17.60;45.38
73633;BME280;61927;50.080;14.418;2023-05-11T08:13:45;99278.16;;;17.59;45.73
73633;BME280;61927;50.080;14.418;2023-05-11T08:16:10;99274.34;;;17.71;45.16
73633;BME280;61927;50.080;14.418;2023-05-11T08:18:36;99268.41;;;17.77;45.07
73633;BME280;61927;50.080;14.418;2023-05-11T08:21:02;99272.63;;;17.80;45.61
73633;BME280;61927;50.080;14.418;2023-05-11T08:23:28;99275.59;;;17.77;44.94
73633;BME280;61927;50.080;14.418;2023-05-11T08:25:54;99273.75;;;17.77;45.11
73633;BME280;61927;50.080;14.418;2023-05-11T08:28:21;99268.94;;;17.81;44.90
73633;BME280;61927;50.080;14.418;2023-05-11T08:30:53;99268.25;;;17.79;45.10
73633;BME280;61927;50.080;14.418;2023-05-11T08:33:19;99265.97;;;17.84;44.83
73633;BME280;61927;50.080;14.418;2023-05-11T08:35:45;99269.03;;;17.98;44.78
73633;BME280;61927;50.080;14.418;2023-05-11T08:38:12;99261.09;;;18.06;44.11
73633;BME280;61927;50.080;14.418;2023-05-11T08:40:38;99259.81;;;18.11;44.11
73633;BME280;61927;50.080;14.418;2023-05-11T08:43:12;99255.00;;;18.14;44.17
73633;BME280;61927;50.080;14.418;2023-05-11T08:45:40;99255.09;;;18.22;43.39
73633;BME280;61927;50.080;14.418;2023-05-11T08:48:06;99250.13;;;18.27;43.75
73633;BME280;61927;50.080;14.418;2023-05-11T08:50:32;99250.78;;;18.39;44.11
73633;BME280;61927;50.080;14.418;2023-05-11T08:52:58;99246.69;;;18.35;43.72
73633;BME280;61927;50.080;14.418;2023-05-11T08:55:25;99249.44;;;18.25;43.94
73633;BME280;61927;50.080;14.418;2023-05-11T08:57:52;99258.22;;;18.18;44.47
73633;BME280;61927;50.080;14.418;2023-05-11T09:00:18;99252.16;;;18.16;44.70
73633;BME280;61927;50.080;14.418;2023-05-11T09:02:45;99250.19;;;18.18;45.01
73633;BME280;61927;50.080;14.418;2023-05-11T09:05:12;99255.06;;;18.32;44.80
73633;BME280;61927;50.080;14.418;2023-05-11T09:07:39;99252.56;;;18.48;40.22
73633;BME280;61927;50.080;14.418;2023-05-11T09:10:07;99242.59;;;18.68;39.26
73633;BME280;61927;50.080;14.418;2023-05-11T09:12:34;99242.53;;;18.78;38.24
73633;BME280;61927;50.080;14.418;2023-05-11T09:15:00;99234.94;;;18.91;38.25
73633;BME280;61927;50.080;14.418;2023-05-11T09:17:26;99239.22;;;19.01;37.68
73633;BME280;61927;50.080;14.418;2023-05-11T09:20:05;99244.91;;;19.16;37.29
73633;BME280;61927;50.080;14.418;2023-05-11T09:22:32;99243.06;;;19.34;37.22
73633;BME280;61927;50.080;14.418;2023-05-11T09:25:00;99244.13;;;19.42;35.21
73633;BME280;61927;50.080;14.418;2023-05-11T09:27:26;99249.34;;;19.43;35.80
73633;BME280;61927;50.080;14.418;2023-05-11T09:29:55;99239.97;;;19.47;35.93
73633;BME280;61927;50.080;14.418;2023-05-11T09:32:21;99242.50;;;19.49;36.30
73633;BME280;61927;50.080;14.418;2023-05-11T09:34:46;99254.38;;;19.56;36.14
73633;BME280;61927;50.080;14.418;2023-05-11T09:37:16;99239.28;;;19.63;35.65
73633;BME280;61927;50.080;14.418;2023-05-11T09:39:43;99241.81;;;19.64;35.15
73633;BME280;61927;50.080;14.418;2023-05-11T09:42:16;99237.13;;;19.66;35.17
73633;BME280;61927;50.080;14.418;2023-05-11T09:44:46;99237.81;;;19.68;36.04
73633;BME280;61927;50.080;14.418;2023-05-11T09:47:16;99237.16;;;19.75;34.76
73633;BME280;61927;50.080;14.418;2023-05-11T09:49:45;99245.94;;;19.77;34.57
73633;BME280;61927;50.080;14.418;2023-05-11T09:52:13;99243.94;;;19.79;33.81
73633;BME280;61927;50.080;14.418;2023-05-11T09:54:49;99239.38;;;19.79;34.00
73633;BME280;61927;50.080;14.418;2023-05-11T09:57:27;99234.31;;;19.76;33.58
73633;BME280;61927;50.080;14.418;2023-05-11T09:59:55;99228.09;;;19.76;33.26
73633;BME280;61927;50.080;14.418;2023-05-11T10:02:29;99231.47;;;19.78;33.82
73633;BME280;61927;50.080;14.418;2023-05-11T10:04:56;99231.00;;;19.82;33.36
73633;BME280;61927;50.080;14.418;2023-05-11T10:07:30;99217.41;;;19.92;33.32
73633;BME280;61927;50.080;14.418;2023-05-11T10:09:58;99218.66;;;20.06;33.56
73633;BME280;61927;50.080;14.418;2023-05-11T10:12:25;99217.91;;;20.21;33.24
73633;BME280;61927;50.080;14.418;2023-05-11T10:14:57;99218.78;;;20.30;33.46
73633;BME280;61927;50.080;14.418;2023-05-11T10:17:25;99208.47;;;20.25;33.85
73633;BME280;61927;50.080;14.418;2023-05-11T10:19:53;99206.25;;;20.13;33.28
73633;BME280;61927;50.080;14.418;2023-05-11T10:22:20;99207.16;;;19.95;33.83
73633;BME280;61927;50.080;14.418;2023-05-11T10:24:46;99215.19;;;19.87;33.89
73633;BME280;61927;50.080;14.418;2023-05-11T10:27:13;99205.13;;;19.89;33.83
73633;BME280;61927;50.080;14.418;2023-05-11T10:29:39;99208.50;;;19.91;33.66
73633;BME280;61927;50.080;14.418;2023-05-11T10:32:06;99204.00;;;20.00;33.40
73633;BME280;61927;50.080;14.418;2023-05-11T10:34:33;99215.31;;;20.12;33.04
73633;BME280;61927;50.080;14.418;2023-05-11T10:36:59;99206.91;;;20.15;32.46
73633;BME280;61927;50.080;14.418;2023-05-11T10:39:27;99199.69;;;20.15;32.43
73633;BME280;61927;50.080;14.418;2023-05-11T10:42:03;99203.03;;;20.09;32.13
73633;BME280;61927;50.080;14.418;2023-05-11T11:03:41;99215.31;;;19.52;31.98
73633;BME280;61927;50.080;14.418;2023-05-11T11:06:27;99202.97;;;19.67;31.58
73633;BME280;61927;50.080;14.418;2023-05-11T11:08:59;99200.03;;;19.86;31.15
73633;BME280;61927;50.080;14.418;2023-05-11T11:14:02;99206.19;;;20.05;31.97
73633;BME280;61927;50.080;14.418;2023-05-11T11:16:30;99210.13;;;20.18;32.69
73633;BME280;61927;50.080;14.418;2023-05-11T11:21:58;99211.69;;;20.29;32.40
73633;BME280;61927;50.080;14.418;2023-05-11T11:27:06;99207.25;;;20.12;31.80
73633;BME280;61927;50.080;14.418;2023-05-11T11:29:34;99209.75;;;20.05;32.16
73633;BME280;61927;50.080;14.418;2023-05-11T11:34:49;99207.38;;;20.02;30.97
73633;BME280;61927;50.080;14.418;2023-05-11T11:37:17;99205.22;;;20.14;31.04
73633;BME280;61927;50.080;14.418;2023-05-11T11:42:16;99202.34;;;20.41;30.69
73633;BME280;61927;50.080;14.418;2023-05-11T11:44:48;99208.94;;;20.55;29.86
73633;BME280;61927;50.080;14.418;2023-05-11T11:47:18;99219.72;;;20.47;30.37
73633;BME280;61927;50.080;14.418;2023-05-11T11:49:46;99215.13;;;20.39;29.76
73633;BME280;61927;50.080;14.418;2023-05-11T11:52:33;99210.81;;;20.54;30.36
73633;BME280;61927;50.080;14.418;2023-05-11T11:55:02;99215.59;;;20.77;29.46
73633;BME280;61927;50.080;14.418;2023-05-11T11:59:59;99212.56;;;20.96;29.87
73633;BME280;61927;50.080;14.418;2023-05-11T12:02:25;99216.63;;;20.92;29.61
73633;BME280;61927;50.080;14.418;2023-05-11T12:04:56;99224.19;;;20.88;29.37
73633;BME280;61927;50.080;14.418;2023-05-11T12:07:23;99217.28;;;20.94;29.13
73633;BME280;61927;50.080;14.418;2023-05-11T12:09:50;99222.19;;;20.99;28.20
73633;BME280;61927;50.080;14.418;2023-05-11T12:12:18;99222.22;;;21.15;28.08
73633;BME280;61927;50.080;14.418;2023-05-11T12:14:45;99208.41;;;21.26;28.41
73633;BME280;61927;50.080;14.418;2023-05-11T12:17:15;99215.84;;;21.40;27.74
73633;BME280;61927;50.080;14.418;2023-05-11T12:19:44;99218.34;;;21.50;27.96
73633;BME280;61927;50.080;14.418;2023-05-11T12:22:11;99211.59;;;21.54;27.53
73633;BME280;61927;50.080;14.418;2023-05-11T12:24:39;99204.03;;;21.41;27.37
73633;BME280;61927;50.080;14.418;2023-05-11T12:27:05;99204.50;;;21.61;28.12
73633;BME280;61927;50.080;14.418;2023-05-11T12:29:31;99202.28;;;21.73;27.41
73633;BME280;61927;50.080;14.418;2023-05-11T12:31:57;99204.66;;;21.76;27.64
73633;BME280;61927;50.080;14.418;2023-05-11T12:34:23;99196.03;;;21.72;27.44
73633;BME280;61927;50.080;14.418;2023-05-11T12:36:51;99193.50;;;21.79;27.30
73633;BME280;61927;50.080;14.418;2023-05-11T12:39:19;99184.91;;;21.75;27.24
73633;BME280;61927;50.080;14.418;2023-05-11T12:41:49;99193.53;;;21.54;27.22
73633;BME280;61927;50.080;14.418;2023-05-11T12:44:16;99195.06;;;21.49;27.81
73633;BME280;61927;50.080;14.418;2023-05-11T12:46:43;99197.09;;;21.39;27.41
73633;BME280;61927;50.080;14.418;2023-05-11T12:49:11;99189.00;;;21.31;27.71
73633;BME280;61927;50.080;14.418;2023-05-11T12:51:46;99194.91;;;21.26;28.13
73633;BME280;61927;50.080;14.418;2023-05-11T12:54:30;99200.13;;;21.44;28.05
73633;BME280;61927;50.080;14.418;2023-05-11T12:56:57;99190.34;;;21.43;28.24
73633;BME280;61927;50.080;14.418;2023-05-11T12:59:34;99184.13;;;21.34;28.46
73633;BME280;61927;50.080;14.418;2023-05-11T13:02:18;99189.50;;;21.18;28.37
73633;BME280;61927;50.080;14.418;2023-05-11T13:04:45;99195.41;;;21.13;29.14
73633;BME280;61927;50.080;14.418;2023-05-11T13:07:13;99194.38;;;21.06;30.01
73633;BME280;61927;50.080;14.418;2023-05-11T13:09:58;99198.75;;;20.91;30.29
73633;BME280;61927;50.080;14.418;2023-05-11T13:12:24;99195.38;;;20.81;30.31
73633;BME280;61927;50.080;14.418;2023-05-11T13:15:06;99200.41;;;20.68;30.97
73633;BME280;61927;50.080;14.418;2023-05-11T13:17:34;99197.81;;;20.50;31.11
73633;BME280;61927;50.080;14.418;2023-05-11T13:22:45;99196.38;;;20.29;31.36
73633;BME280;61927;50.080;14.418;2023-05-11T13:25:18;99201.56;;;20.23;31.00
73633;BME280;61927;50.080;14.418;2023-05-11T13:27:44;99194.66;;;20.20;31.09
73633;BME280;61927;50.080;14.418;2023-05-11T13:30:10;99194.34;;;20.23;31.07
73633;BME280;61927;50.080;14.418;2023-05-11T13:32:37;99193.50;;;20.31;31.05
73633;BME280;61927;50.080;14.418;2023-05-11T13:35:03;99188.19;;;20.39;30.85